| time (UTC) | temp C | wind direction | speed KPH | gust KPH | rain 1hr cm | rain 24hr cm | rain mn cm | humidity % | barometer mb |
| 20260906230908 | 23 | 141 | 11.3 | 12.9 | 0.00 | 0.00 | 0.00 | 29 | 1019.1 |
| 20260906230403 | 23 | 146 | 11.3 | 17.7 | 0.00 | 0.00 | 0.00 | 27 | 1019.1 |
| 20260906225901 | 24 | 155 | 9.7 | 12.9 | 0.00 | 0.00 | 0.00 | 28 | 1019.1 |
| 20260906225357 | 24 | 130 | 9.7 | 12.9 | 0.00 | 0.00 | 0.00 | 26 | 1019.5 |
| 20260906224853 | 25 | 185 | 11.3 | 14.5 | 0.00 | 0.00 | 0.00 | 26 | 1019.3 |
| 20260906224349 | 25 | 144 | 12.9 | 14.5 | 0.00 | 0.00 | 0.00 | 26 | 1019.2 |
| 20260906223845 | 25 | 172 | 12.9 | 14.5 | 0.00 | 0.00 | 0.00 | 26 | 1019.3 |
| 20260906223341 | 25 | 167 | 14.5 | 17.7 | 0.00 | 0.00 | 0.00 | 26 | 1019.6 |
| 20260906222838 | 25 | 203 | 14.5 | 16.1 | 0.00 | 0.00 | 0.00 | 25 | 1019.3 |
| 20260906222332 | 25 | 168 | 12.9 | 14.5 | 0.00 | 0.00 | 0.00 | 26 | 1019.3 |
| 20260906221830 | 25 | 126 | 14.5 | 16.1 | 0.00 | 0.00 | 0.00 | 24 | 1019.2 |
| 20260906221330 | 25 | 204 | 11.3 | 12.9 | 0.00 | 0.00 | 0.00 | 24 | 1019.5 |
| 20260906220825 | 25 | 214 | 9.7 | 12.9 | 0.00 | 0.00 | 0.00 | 24 | 1019.5 |
| 20260906220321 | 25 | 176 | 14.5 | 16.1 | 0.00 | 0.00 | 0.00 | 24 | 1019.5 |
| 20260906215819 | 25 | 175 | 17.7 | 20.9 | 0.00 | 0.00 | 0.00 | 25 | 1019.3 |
| 20260906215314 | 26 | 148 | 16.1 | 17.7 | 0.00 | 0.00 | 0.00 | 23 | 1019.5 |
| 20260906214812 | 26 | 159 | 19.3 | 25.7 | 0.00 | 0.00 | 0.00 | 23 | 1019.7 |
| 20260906214307 | 24 | 158 | 8.0 | 12.9 | 0.00 | 0.00 | 0.00 | 24 | 1019.8 |
| 20260906213807 | 25 | 207 | 19.3 | 22.5 | 0.00 | 0.00 | 0.00 | 23 | 1020.1 |
| 20260906213306 | 25 | 226 | 17.7 | 25.7 | 0.00 | 0.00 | 0.00 | 23 | 1020.2 |
| 20260906212758 | 25 | 185 | 9.7 | 12.9 | 0.00 | 0.00 | 0.00 | 23 | 1020.1 |
| 20260906212253 | 25 | 189 | 14.5 | 16.1 | 0.00 | 0.00 | 0.00 | 24 | 1019.9 |
| 20260906211753 | 25 | 187 | 19.3 | 22.5 | 0.00 | 0.00 | 0.00 | 23 | 1020.3 |
| 20260906211248 | 25 | 228 | 19.3 | 22.5 | 0.00 | 0.00 | 0.00 | 23 | 1020.3 |
| 20260906210743 | 25 | 177 | 17.7 | 22.5 | 0.00 | 0.00 | 0.00 | 23 | 1020.2 |
| 20260906210238 | 25 | 203 | 22.5 | 25.7 | 0.00 | 0.00 | 0.00 | 23 | 1020.3 |
| 20260906205733 | 25 | 188 | 16.1 | 20.9 | 0.00 | 0.00 | 0.00 | 23 | 1020.4 |
| 20260906205231 | 26 | 189 | 14.5 | 16.1 | 0.00 | 0.00 | 0.00 | 24 | 1020.3 |
| 20260906204730 | 25 | 142 | 12.9 | 14.5 | 0.00 | 0.00 | 0.00 | 24 | 1020.4 |
| 20260906204229 | 25 | 148 | 14.5 | 16.1 | 0.00 | 0.00 | 0.00 | 24 | 1020.7 |
| 20260906203729 | 24 | 174 | 19.3 | 22.5 | 0.00 | 0.00 | 0.00 | 25 | 1020.7 |
| 20260906203224 | 25 | 210 | 16.1 | 20.9 | 0.00 | 0.00 | 0.00 | 23 | 1020.4 |
| 20260906202721 | 25 | 176 | 17.7 | 22.5 | 0.00 | 0.00 | 0.00 | 25 | 1020.4 |
| 20260906202220 | 25 | 150 | 14.5 | 17.7 | 0.00 | 0.00 | 0.00 | 25 | 1020.3 |
| 20260906201715 | 25 | 177 | 12.9 | 14.5 | 0.00 | 0.00 | 0.00 | 25 | 1020.4 |
| 20260906201215 | 24 | 163 | 22.5 | 27.4 | 0.00 | 0.00 | 0.00 | 26 | 1020.6 |
| 20260906200711 | 25 | 191 | 11.3 | 14.5 | 0.00 | 0.00 | 0.00 | 24 | 1020.8 |
| 20260906200206 | 24 | 106 | 19.3 | 22.5 | 0.00 | 0.00 | 0.00 | 25 | 1020.6 |
| 20260906195656 | 25 | 153 | 14.5 | 17.7 | 0.00 | 0.00 | 0.00 | 25 | 1020.6 |
| 20260906195153 | 25 | 194 | 17.7 | 20.9 | 0.00 | 0.00 | 0.00 | 25 | 1020.8 |
| 20260906194648 | 25 | 204 | 9.7 | 12.9 | 0.00 | 0.00 | 0.00 | 24 | 1020.4 |
| 20260906194143 | 24 | 216 | 14.5 | 17.7 | 0.00 | 0.00 | 0.00 | 25 | 1020.4 |
| 20260906193638 | 24 | 180 | 14.5 | 14.5 | 0.00 | 0.00 | 0.00 | 25 | 1020.8 |
| 20260906193133 | 23 | 149 | 12.9 | 16.1 | 0.00 | 0.00 | 0.00 | 26 | 1020.8 |
| 20260906192629 | 23 | 189 | 12.9 | 14.5 | 0.00 | 0.00 | 0.00 | 26 | 1021.0 |
| 20260906192128 | 23 | 163 | 14.5 | 22.5 | 0.00 | 0.00 | 0.00 | 26 | 1021.0 |
| 20260906191624 | 23 | 200 | 9.7 | 12.9 | 0.00 | 0.00 | 0.00 | 26 | 1021.4 |
| 20260906191122 | 24 | 161 | 16.1 | 17.7 | 0.00 | 0.00 | 0.00 | 26 | 1021.2 |
| 20260906190617 | 23 | 112 | 17.7 | 20.9 | 0.00 | 0.00 | 0.00 | 26 | 1021.5 |
| 20260906190112 | 23 | 170 | 12.9 | 16.1 | 0.00 | 0.00 | 0.00 | 26 | 1021.8 |
| 20260906185610 | 23 | 133 | 4.8 | 4.8 | 0.00 | 0.00 | 0.00 | 26 | 1021.5 |
| 20260906185109 | 23 | 121 | 17.7 | 17.7 | 0.00 | 0.00 | 0.00 | 26 | 1021.9 |
| 20260906184604 | 23 | 179 | 9.7 | 16.1 | 0.00 | 0.00 | 0.00 | 26 | 1021.8 |
| 20260906184100 | 23 | 190 | 19.3 | 22.5 | 0.00 | 0.00 | 0.00 | 26 | 1022.2 |
| 20260906183555 | 23 | 123 | 6.4 | 9.7 | 0.00 | 0.00 | 0.00 | 25 | 1022.0 |
| 20260906183052 | 23 | 130 | 6.4 | 9.7 | 0.00 | 0.00 | 0.00 | 27 | 1022.2 |
| 20260906182552 | 23 | 140 | 12.9 | 16.1 | 0.00 | 0.00 | 0.00 | 27 | 1022.3 |
| 20260906182048 | 23 | 129 | 12.9 | 16.1 | 0.00 | 0.00 | 0.00 | 27 | 1022.4 |
| 20260906181543 | 23 | 111 | 17.7 | 24.1 | 0.00 | 0.00 | 0.00 | 27 | 1022.4 |
| 20260906181039 | 22 | 170 | 14.5 | 16.1 | 0.00 | 0.00 | 0.00 | 28 | 1022.4 |
| 20260906180534 | 23 | 127 | 11.3 | 14.5 | 0.00 | 0.00 | 0.00 | 28 | 1022.5 |
| 20260906180033 | 22 | 187 | 16.1 | 17.7 | 0.00 | 0.00 | 0.00 | 27 | 1022.3 |
| 20260906175527 | 22 | 167 | 9.7 | 11.3 | 0.00 | 0.00 | 0.00 | 27 | 1022.5 |
| 20260906175027 | 22 | 146 | 17.7 | 22.5 | 0.00 | 0.00 | 0.00 | 27 | 1022.6 |
| 20260906174525 | 22 | 184 | 16.1 | 20.9 | 0.00 | 0.00 | 0.00 | 29 | 1022.6 |
| 20260906174020 | 22 | 154 | 14.5 | 17.7 | 0.00 | 0.00 | 0.00 | 28 | 1022.9 |
| 20260906173515 | 22 | 127 | 9.7 | 12.9 | 0.00 | 0.00 | 0.00 | 30 | 1022.8 |
| 20260906173011 | 21 | 140 | 4.8 | 4.8 | 0.00 | 0.00 | 0.00 | 29 | 1022.9 |
| 20260906172510 | 21 | 150 | 8.0 | 9.7 | 0.00 | 0.00 | 0.00 | 31 | 1023.0 |
| 20260906172006 | 21 | 144 | 8.0 | 11.3 | 0.00 | 0.00 | 0.00 | 30 | 1023.0 |
| 20260906171500 | 21 | 124 | 6.4 | 9.7 | 0.00 | 0.00 | 0.00 | 31 | 1023.0 |
| 20260906170955 | 20 | 147 | 4.8 | 9.7 | 0.00 | 0.00 | 0.00 | 33 | 1023.3 |
| 20260906170452 | 21 | 142 | 9.7 | 11.3 | 0.00 | 0.00 | 0.00 | 32 | 1023.3 |
| 20260906165949 | 20 | 175 | 3.2 | 4.8 | 0.00 | 0.00 | 0.00 | 33 | 1023.4 |
| 20260906165443 | 20 | 164 | 4.8 | 4.8 | 0.00 | 0.00 | 0.00 | 31 | 1023.4 |
| 20260906164938 | 20 | 120 | 6.4 | 6.4 | 0.00 | 0.00 | 0.00 | 31 | 1023.3 |
| 20260906164436 | 20 | 169 | 4.8 | 6.4 | 0.00 | 0.00 | 0.00 | 31 | 1023.3 |
| 20260906163933 | 20 | 127 | 4.8 | 6.4 | 0.00 | 0.00 | 0.00 | 33 | 1023.4 |
| 20260906163428 | 19 | 144 | 3.2 | 3.2 | 0.00 | 0.00 | 0.00 | 34 | 1023.3 |
| 20260906162926 | 19 | 104 | 3.2 | 3.2 | 0.00 | 0.00 | 0.00 | 35 | 1023.4 |
| 20260906162425 | 18 | 100 | 4.8 | 6.4 | 0.00 | 0.00 | 0.00 | 36 | 1023.6 |
| 20260906161920 | 18 | 87 | 4.8 | 4.8 | 0.00 | 0.00 | 0.00 | 36 | 1023.5 |
| 20260906161419 | 18 | 113 | 4.8 | 4.8 | 0.00 | 0.00 | 0.00 | 36 | 1023.5 |
| 20260906160918 | 18 | 114 | 1.6 | 1.6 | 0.00 | 0.00 | 0.00 | 35 | 1023.5 |
| 20260906160407 | 18 | 49 | 3.2 | 3.2 | 0.00 | 0.00 | 0.00 | 35 | 1023.6 |
| 20260906155905 | 18 | 107 | 0.0 | 0.0 | 0.00 | 0.00 | 0.00 | 35 | 1023.6 |
| 20260906155359 | 18 | 97 | 3.2 | 3.2 | 0.00 | 0.00 | 0.00 | 36 | 1023.6 |
| 20260906154856 | 17 | 110 | 0.0 | 0.0 | 0.00 | 0.00 | 0.00 | 35 | 1023.7 |
| 20260906154354 | 16 | 99 | 3.2 | 3.2 | 0.00 | 0.00 | 0.00 | 38 | 1023.7 |
| 20260906153854 | 16 | 102 | 3.2 | 3.2 | 0.00 | 0.00 | 0.00 | 39 | 1024.0 |
| 20260906153353 | 15 | 132 | 1.6 | 1.6 | 0.00 | 0.00 | 0.00 | 39 | 1023.7 |
| 20260906152848 | 15 | 91 | 1.6 | 1.6 | 0.00 | 0.00 | 0.00 | 40 | 1024.0 |
| 20260906152343 | 15 | 114 | 1.6 | 3.2 | 0.00 | 0.00 | 0.00 | 41 | 1024.0 |
| 20260906151842 | 15 | 107 | 0.0 | 0.0 | 0.00 | 0.00 | 0.00 | 41 | 1023.7 |
| 20260906151338 | 14 | 108 | 1.6 | 1.6 | 0.00 | 0.00 | 0.00 | 41 | 1024.1 |
| 20260906150833 | 13 | 106 | 1.6 | 1.6 | 0.00 | 0.00 | 0.00 | 43 | 1024.1 |
| 20260906150329 | 13 | 102 | 1.6 | 3.2 | 0.00 | 0.00 | 0.00 | 44 | 1024.0 |
| 20260906145828 | 12 | 121 | 3.2 | 4.8 | 0.00 | 0.00 | 0.00 | 45 | 1024.1 |
| 20260906145326 | 12 | 107 | 1.6 | 1.6 | 0.00 | 0.00 | 0.00 | 44 | 1024.1 |
| 20260906144822 | 11 | 116 | 3.2 | 3.2 | 0.00 | 0.00 | 0.00 | 45 | 1024.2 |
| 20260906144317 | 11 | 121 | 0.0 | 0.0 | 0.00 | 0.00 | 0.00 | 45 | 1024.1 |
| 20260906143816 | 10 | 144 | 1.6 | 1.6 | 0.00 | 0.00 | 0.00 | 48 | 1024.1 |
| 20260906143313 | 10 | 142 | 3.2 | 3.2 | 0.00 | 0.00 | 0.00 | 47 | 1024.0 |
| 20260906142809 | 10 | 101 | 0.0 | 0.0 | 0.00 | 0.00 | 0.00 | 46 | 1024.0 |
| 20260906142306 | 10 | 107 | 0.0 | 0.0 | 0.00 | 0.00 | 0.00 | 48 | 1024.1 |
| 20260906141802 | 8 | 101 | 0.0 | 0.0 | 0.00 | 0.00 | 0.00 | 53 | 1024.1 |
| 20260906141256 | 7 | 85 | 0.0 | 1.6 | 0.00 | 0.00 | 0.00 | 56 | 1023.9 |
| 20260906140755 | 6 | 75 | 1.6 | 1.6 | 0.00 | 0.00 | 0.00 | 58 | 1024.0 |
| 20260906140250 | 6 | 357 | 3.2 | 3.2 | 0.00 | 0.00 | 0.00 | 58 | 1024.1 |
| 20260906135748 | 5 | 46 | 1.6 | 1.6 | 0.00 | 0.00 | 0.00 | 59 | 1023.9 |
| 20260906135238 | 5 | 2 | 3.2 | 4.8 | 0.00 | 0.00 | 0.00 | 60 | 1023.9 |
| 20260906134734 | 5 | 67 | 1.6 | 1.6 | 0.00 | 0.00 | 0.00 | 59 | 1023.9 |
| 20260906134229 | 5 | 28 | 3.2 | 3.2 | 0.00 | 0.00 | 0.00 | 60 | 1023.7 |
| 20260906133725 | 5 | 6 | 6.4 | 6.4 | 0.00 | 0.00 | 0.00 | 61 | 1023.5 |
| 20260906133220 | 4 | 356 | 1.6 | 3.2 | 0.00 | 0.00 | 0.00 | 61 | 1023.7 |
| 20260906132715 | 3 | 354 | 3.2 | 4.8 | 0.00 | 0.00 | 0.00 | 61 | 1023.7 |
| 20260906132211 | 3 | 355 | 3.2 | 3.2 | 0.00 | 0.00 | 0.00 | 62 | 1023.6 |
| 20260906131706 | 3 | 15 | 3.2 | 3.2 | 0.00 | 0.00 | 0.00 | 62 | 1023.6 |
| 20260906131200 | 3 | 49 | 1.6 | 1.6 | 0.00 | 0.00 | 0.00 | 63 | 1023.7 |
| 20260906130656 | 3 | 18 | 3.2 | 3.2 | 0.00 | 0.00 | 0.00 | 63 | 1023.5 |
| 20260906130151 | 3 | 86 | 0.0 | 0.0 | 0.00 | 0.00 | 0.00 | 63 | 1023.7 |
| 20260906125649 | 3 | 83 | 0.0 | 0.0 | 0.00 | 0.00 | 0.00 | 64 | 1023.5 |
| 20260906125148 | 3 | 81 | 3.2 | 3.2 | 0.00 | 0.00 | 0.00 | 63 | 1023.6 |
| 20260906124643 | 3 | 6 | 3.2 | 4.8 | 0.00 | 0.00 | 0.00 | 62 | 1023.3 |
| 20260906124133 | 3 | 334 | 4.8 | 4.8 | 0.00 | 0.00 | 0.00 | 62 | 1023.6 |
| 20260906123632 | 3 | 73 | 3.2 | 3.2 | 0.00 | 0.00 | 0.00 | 62 | 1023.5 |
| 20260906123127 | 3 | 329 | 4.8 | 4.8 | 0.00 | 0.00 | 0.00 | 63 | 1023.5 |
| 20260906122626 | 3 | 333 | 3.2 | 3.2 | 0.00 | 0.00 | 0.00 | 61 | 1023.3 |
| 20260906122121 | 3 | 352 | 3.2 | 3.2 | 0.00 | 0.00 | 0.00 | 60 | 1023.4 |
| 20260906121618 | 3 | 35 | 4.8 | 4.8 | 0.00 | 0.00 | 0.00 | 62 | 1023.3 |
| 20260906121114 | 3 | 0 | 6.4 | 6.4 | 0.00 | 0.00 | 0.00 | 63 | 1023.0 |
| 20260906120609 | 3 | 88 | 0.0 | 0.0 | 0.00 | 0.00 | 0.00 | 62 | 1023.1 |
| 20260906120107 | 3 | 16 | 3.2 | 3.2 | 0.00 | 0.00 | 0.00 | 63 | 1023.3 |
| 20260906115606 | 3 | 66 | 1.6 | 1.6 | 0.00 | 0.00 | 0.00 | 64 | 1023.3 |
| 20260906115102 | 3 | 66 | 3.2 | 3.2 | 0.00 | 0.00 | 0.00 | 64 | 1023.7 |
| 20260906114601 | 3 | 336 | 3.2 | 3.2 | 0.00 | 0.00 | 0.00 | 63 | 1023.4 |
| 20260906114057 | 3 | 332 | 4.8 | 4.8 | 0.00 | 0.00 | 0.00 | 65 | 1023.3 |
| 20260906113556 | 4 | 83 | 0.0 | 1.6 | 0.00 | 0.00 | 0.00 | 62 | 1023.5 |
| 20260906113052 | 4 | 359 | 4.8 | 4.8 | 0.00 | 0.00 | 0.00 | 61 | 1023.4 |
| 20260906112551 | 4 | 99 | 0.0 | 0.0 | 0.00 | 0.00 | 0.00 | 62 | 1023.5 |
| 20260906112048 | 4 | 87 | 0.0 | 0.0 | 0.00 | 0.00 | 0.00 | 62 | 1023.5 |
| 20260906111548 | 4 | 60 | 3.2 | 3.2 | 0.00 | 0.00 | 0.00 | 60 | 1023.7 |
| 20260906111043 | 4 | 10 | 3.2 | 3.2 | 0.00 | 0.00 | 0.00 | 61 | 1023.3 |
| 20260906110543 | 4 | 48 | 1.6 | 3.2 | 0.00 | 0.00 | 0.00 | 60 | 1023.3 |
| 20260906110042 | 4 | 68 | 1.6 | 1.6 | 0.00 | 0.00 | 0.00 | 60 | 1023.3 |
| 20260906105537 | 4 | 82 | 0.0 | 1.6 | 0.00 | 0.00 | 0.00 | 61 | 1023.3 |
| 20260906105033 | 5 | 3 | 4.8 | 4.8 | 0.00 | 0.00 | 0.00 | 59 | 1023.1 |
| 20260906104531 | 5 | 3 | 3.2 | 3.2 | 0.00 | 0.00 | 0.00 | 59 | 1023.4 |
| 20260906104026 | 5 | 68 | 1.6 | 1.6 | 0.00 | 0.00 | 0.00 | 58 | 1022.9 |
| 20260906103524 | 5 | 61 | 1.6 | 1.6 | 0.00 | 0.00 | 0.00 | 58 | 1023.0 |
| 20260906103020 | 5 | 55 | 1.6 | 1.6 | 0.00 | 0.00 | 0.00 | 58 | 1023.0 |
| 20260906102520 | 5 | 79 | 3.2 | 3.2 | 0.00 | 0.00 | 0.00 | 58 | 1023.0 |
| 20260906102015 | 5 | 80 | 0.0 | 1.6 | 0.00 | 0.00 | 0.00 | 57 | 1023.0 |
| 20260906101510 | 5 | 40 | 1.6 | 3.2 | 0.00 | 0.00 | 0.00 | 56 | 1023.1 |
| 20260906101005 | 6 | 60 | 3.2 | 4.8 | 0.00 | 0.00 | 0.00 | 56 | 1023.0 |
| 20260906100500 | 6 | 21 | 4.8 | 6.4 | 0.00 | 0.00 | 0.00 | 55 | 1023.0 |
| 20260906100000 | 5 | 78 | 1.6 | 1.6 | 0.00 | 0.00 | 0.00 | 56 | 1022.8 |
| 20260906095455 | 5 | 85 | 1.6 | 3.2 | 0.00 | 0.00 | 0.00 | 55 | 1022.8 |
| 20260906094950 | 6 | 1 | 4.8 | 4.8 | 0.00 | 0.00 | 0.00 | 55 | 1022.9 |
| 20260906094449 | 6 | 65 | 3.2 | 3.2 | 0.00 | 0.00 | 0.00 | 55 | 1022.9 |
| 20260906093945 | 6 | 344 | 3.2 | 3.2 | 0.00 | 0.00 | 0.00 | 56 | 1022.9 |
| 20260906093441 | 6 | 92 | 1.6 | 3.2 | 0.00 | 0.00 | 0.00 | 56 | 1023.0 |
| 20260906092936 | 6 | 18 | 1.6 | 1.6 | 0.00 | 0.00 | 0.00 | 56 | 1022.6 |
| 20260906092435 | 6 | 77 | 0.0 | 0.0 | 0.00 | 0.00 | 0.00 | 56 | 1023.0 |
| 20260906091931 | 6 | 68 | 3.2 | 3.2 | 0.00 | 0.00 | 0.00 | 55 | 1022.8 |
| 20260906091426 | 6 | 41 | 3.2 | 3.2 | 0.00 | 0.00 | 0.00 | 56 | 1022.8 |
| 20260906090923 | 6 | 89 | 0.0 | 0.0 | 0.00 | 0.00 | 0.00 | 57 | 1022.8 |
| 20260906090418 | 6 | 99 | 0.0 | 0.0 | 0.00 | 0.00 | 0.00 | 57 | 1022.8 |
| 20260906085913 | 5 | 92 | 0.0 | 0.0 | 0.00 | 0.00 | 0.00 | 58 | 1022.8 |
| 20260906085412 | 5 | 83 | 0.0 | 1.6 | 0.00 | 0.00 | 0.00 | 58 | 1023.0 |
| 20260906084911 | 6 | 19 | 3.2 | 3.2 | 0.00 | 0.00 | 0.00 | 60 | 1022.8 |
| 20260906084406 | 6 | 349 | 4.8 | 4.8 | 0.00 | 0.00 | 0.00 | 62 | 1022.8 |
| 20260906083905 | 6 | 61 | 1.6 | 1.6 | 0.00 | 0.00 | 0.00 | 58 | 1022.8 |
| 20260906083401 | 7 | 325 | 3.2 | 4.8 | 0.00 | 0.00 | 0.00 | 54 | 1022.6 |
| 20260906082900 | 7 | 351 | 4.8 | 4.8 | 0.00 | 0.00 | 0.00 | 54 | 1023.0 |
| 20260906082400 | 7 | 107 | 0.0 | 0.0 | 0.00 | 0.00 | 0.00 | 54 | 1022.9 |
| 20260906081857 | 7 | 139 | 0.0 | 1.6 | 0.00 | 0.00 | 0.00 | 54 | 1022.9 |
| 20260906081352 | 7 | 179 | 3.2 | 3.2 | 0.00 | 0.00 | 0.00 | 54 | 1022.8 |
| 20260906080848 | 7 | 73 | 1.6 | 1.6 | 0.00 | 0.00 | 0.00 | 54 | 1022.9 |
| 20260906080344 | 7 | 139 | 1.6 | 1.6 | 0.00 | 0.00 | 0.00 | 53 | 1023.0 |
| 20260906075843 | 7 | 87 | 1.6 | 1.6 | 0.00 | 0.00 | 0.00 | 52 | 1023.0 |
| 20260906075338 | 7 | 73 | 1.6 | 1.6 | 0.00 | 0.00 | 0.00 | 51 | 1022.9 |
| 20260906074834 | 7 | 101 | 0.0 | 0.0 | 0.00 | 0.00 | 0.00 | 51 | 1023.0 |
| 20260906074334 | 7 | 99 | 0.0 | 0.0 | 0.00 | 0.00 | 0.00 | 53 | 1022.8 |
| 20260906073832 | 7 | 106 | 0.0 | 0.0 | 0.00 | 0.00 | 0.00 | 53 | 1022.9 |
| 20260906073327 | 7 | 90 | 0.0 | 0.0 | 0.00 | 0.00 | 0.00 | 54 | 1023.0 |
| 20260906072824 | 7 | 273 | 3.2 | 3.2 | 0.00 | 0.00 | 0.00 | 56 | 1022.6 |
| 20260906072319 | 6 | 108 | 0.0 | 0.0 | 0.00 | 0.00 | 0.00 | 58 | 1022.9 |
| 20260906071815 | 6 | 52 | 1.6 | 3.2 | 0.00 | 0.00 | 0.00 | 59 | 1022.8 |
| 20260906071310 | 6 | 334 | 3.2 | 4.8 | 0.00 | 0.00 | 0.00 | 62 | 1022.8 |
| 20260906070807 | 6 | 14 | 4.8 | 4.8 | 0.00 | 0.00 | 0.00 | 63 | 1022.8 |
| 20260906070302 | 7 | 353 | 6.4 | 6.4 | 0.00 | 0.00 | 0.00 | 56 | 1022.9 |
| 20260906065801 | 7 | 176 | 1.6 | 3.2 | 0.00 | 0.00 | 0.00 | 53 | 1022.8 |
| 20260906065257 | 7 | 225 | 1.6 | 3.2 | 0.00 | 0.00 | 0.00 | 54 | 1022.9 |
| 20260906064752 | 7 | 251 | 3.2 | 3.2 | 0.00 | 0.00 | 0.00 | 53 | 1022.8 |
| 20260906064248 | 10 | 335 | 3.2 | 4.8 | 0.00 | 0.00 | 0.00 | 45 | 1022.8 |
| 20260906063743 | 10 | 332 | 3.2 | 4.8 | 0.00 | 0.00 | 0.00 | 44 | 1022.6 |
| 20260906063238 | 9 | 34 | 1.6 | 1.6 | 0.00 | 0.00 | 0.00 | 45 | 1022.8 |
| 20260906062733 | 9 | 75 | 1.6 | 1.6 | 0.00 | 0.00 | 0.00 | 46 | 1022.8 |
| 20260906062227 | 9 | 92 | 0.0 | 1.6 | 0.00 | 0.00 | 0.00 | 47 | 1022.6 |
| 20260906061723 | 9 | 100 | 0.0 | 0.0 | 0.00 | 0.00 | 0.00 | 47 | 1022.6 |
| 20260906061220 | 9 | 27 | 3.2 | 4.8 | 0.00 | 0.00 | 0.00 | 46 | 1022.5 |
| 20260906060715 | 10 | 64 | 4.8 | 4.8 | 0.00 | 0.00 | 0.00 | 45 | 1022.5 |
| 20260906060212 | 10 | 1 | 6.4 | 9.7 | 0.00 | 0.00 | 0.00 | 44 | 1022.8 |
| 20260906055708 | 10 | 40 | 6.4 | 6.4 | 0.00 | 0.00 | 0.00 | 44 | 1022.5 |
| 20260906055203 | 10 | 11 | 6.4 | 6.4 | 0.00 | 0.00 | 0.00 | 43 | 1022.8 |
| 20260906054658 | 10 | 11 | 4.8 | 4.8 | 0.00 | 0.00 | 0.00 | 43 | 1022.8 |
| 20260906054157 | 10 | 45 | 1.6 | 3.2 | 0.00 | 0.00 | 0.00 | 41 | 1022.8 |
| 20260906053654 | 10 | 16 | 1.6 | 1.6 | 0.00 | 0.00 | 0.00 | 41 | 1022.8 |
| 20260906053149 | 10 | 76 | 1.6 | 1.6 | 0.00 | 0.00 | 0.00 | 41 | 1022.6 |
| 20260906052645 | 10 | 57 | 1.6 | 1.6 | 0.00 | 0.00 | 0.00 | 42 | 1022.9 |
| 20260906052141 | 10 | 53 | 3.2 | 3.2 | 0.00 | 0.00 | 0.00 | 42 | 1023.0 |
| 20260906051637 | 10 | 90 | 0.0 | 0.0 | 0.00 | 0.00 | 0.00 | 41 | 1022.9 |
| 20260906051137 | 10 | 62 | 1.6 | 3.2 | 0.00 | 0.00 | 0.00 | 42 | 1022.9 |
| 20260906050633 | 10 | 129 | 0.0 | 0.0 | 0.00 | 0.00 | 0.00 | 43 | 1022.9 |
| 20260906050128 | 10 | 124 | 0.0 | 0.0 | 0.00 | 0.00 | 0.00 | 43 | 1022.8 |
| 20260906045626 | 10 | 103 | 0.0 | 0.0 | 0.00 | 0.00 | 0.00 | 43 | 1022.8 |
| 20260906045121 | 10 | 53 | 3.2 | 3.2 | 0.00 | 0.00 | 0.00 | 43 | 1022.6 |
| 20260906044617 | 10 | 100 | 0.0 | 0.0 | 0.00 | 0.00 | 0.00 | 43 | 1022.6 |
| 20260906044112 | 10 | 26 | 3.2 | 4.8 | 0.00 | 0.00 | 0.00 | 44 | 1022.6 |
| 20260906043609 | 11 | 65 | 1.6 | 1.6 | 0.00 | 0.00 | 0.00 | 44 | 1022.5 |
| 20260906043104 | 11 | 7 | 4.8 | 4.8 | 0.00 | 0.00 | 0.00 | 44 | 1022.5 |
| 20260906042603 | 11 | 1 | 4.8 | 4.8 | 0.00 | 0.00 | 0.00 | 45 | 1022.8 |
| 20260906042058 | 11 | 336 | 3.2 | 3.2 | 0.00 | 0.00 | 0.00 | 43 | 1022.6 |
| 20260906041554 | 11 | 44 | 3.2 | 3.2 | 0.00 | 0.00 | 0.00 | 43 | 1022.8 |
| 20260906041048 | 11 | 35 | 4.8 | 4.8 | 0.00 | 0.00 | 0.00 | 42 | 1022.5 |
| 20260906040543 | 11 | 328 | 4.8 | 4.8 | 0.00 | 0.00 | 0.00 | 42 | 1022.5 |
| 20260906040034 | 11 | 356 | 4.8 | 4.8 | 0.00 | 0.00 | 0.00 | 40 | 1022.4 |
| 20260906035528 | 12 | 337 | 3.2 | 4.8 | 0.00 | 0.00 | 0.00 | 39 | 1022.8 |
| 20260906035024 | 12 | 89 | 0.0 | 0.0 | 0.00 | 0.00 | 0.00 | 38 | 1022.5 |
| 20260906034519 | 13 | 81 | 1.6 | 1.6 | 0.00 | 0.00 | 0.00 | 37 | 1022.4 |
| 20260906034014 | 13 | 100 | 0.0 | 0.0 | 0.00 | 0.00 | 0.00 | 36 | 1022.4 |
| 20260906033508 | 13 | 87 | 0.0 | 0.0 | 0.00 | 0.00 | 0.00 | 37 | 1022.4 |
| 20260906033004 | 14 | 90 | 0.0 | 1.6 | 0.00 | 0.00 | 0.00 | 37 | 1022.4 |
| 20260906032500 | 15 | 71 | 1.6 | 1.6 | 0.00 | 0.00 | 0.00 | 35 | 1022.0 |
| 20260906031959 | 15 | 42 | 1.6 | 1.6 | 0.00 | 0.00 | 0.00 | 35 | 1022.3 |
| 20260906031450 | 14 | 104 | 0.0 | 0.0 | 0.00 | 0.00 | 0.00 | 36 | 1022.2 |
| 20260906030945 | 14 | 355 | 3.2 | 3.2 | 0.00 | 0.00 | 0.00 | 36 | 1022.3 |
| 20260906030439 | 15 | 59 | 1.6 | 1.6 | 0.00 | 0.00 | 0.00 | 36 | 1022.0 |
| 20260906025934 | 16 | 93 | 0.0 | 1.6 | 0.00 | 0.00 | 0.00 | 31 | 1022.2 |
| 20260906025428 | 16 | 161 | 1.6 | 3.2 | 0.00 | 0.00 | 0.00 | 31 | 1022.2 |
| 20260906024927 | 16 | 289 | 1.6 | 3.2 | 0.00 | 0.00 | 0.00 | 32 | 1021.9 |
| 20260906024427 | 16 | 269 | 6.4 | 6.4 | 0.00 | 0.00 | 0.00 | 31 | 1021.9 |
| 20260906023922 | 17 | 63 | 1.6 | 1.6 | 0.00 | 0.00 | 0.00 | 31 | 1022.0 |
| 20260906023418 | 18 | 103 | 0.0 | 0.0 | 0.00 | 0.00 | 0.00 | 28 | 1021.8 |
| 20260906022918 | 18 | 130 | 0.0 | 1.6 | 0.00 | 0.00 | 0.00 | 26 | 1021.8 |
| 20260906022413 | 19 | 134 | 0.0 | 1.6 | 0.00 | 0.00 | 0.00 | 26 | 1021.7 |
| 20260906021909 | 19 | 155 | 1.6 | 3.2 | 0.00 | 0.00 | 0.00 | 26 | 1021.8 |
| 20260906021409 | 19 | 146 | 1.6 | 3.2 | 0.00 | 0.00 | 0.00 | 26 | 1021.7 |
| 20260906020903 | 19 | 184 | 3.2 | 3.2 | 0.00 | 0.00 | 0.00 | 27 | 1021.7 |
| 20260906020403 | 20 | 184 | 3.2 | 3.2 | 0.00 | 0.00 | 0.00 | 26 | 1021.5 |
| 20260906015857 | 20 | 207 | 1.6 | 3.2 | 0.00 | 0.00 | 0.00 | 26 | 1021.8 |
| 20260906015356 | 20 | 150 | 3.2 | 4.8 | 0.00 | 0.00 | 0.00 | 26 | 1021.9 |
| 20260906014856 | 20 | 216 | 4.8 | 4.8 | 0.00 | 0.00 | 0.00 | 25 | 1021.5 |
| 20260906014356 | 21 | 206 | 4.8 | 4.8 | 0.00 | 0.00 | 0.00 | 25 | 1021.5 |
| 20260906013852 | 21 | 199 | 4.8 | 4.8 | 0.00 | 0.00 | 0.00 | 25 | 1021.7 |
| 20260906013348 | 22 | 184 | 4.8 | 4.8 | 0.00 | 0.00 | 0.00 | 24 | 1021.7 |
| 20260906012843 | 22 | 216 | 8.0 | 9.7 | 0.00 | 0.00 | 0.00 | 24 | 1021.8 |
| 20260906012338 | 23 | 203 | 9.7 | 11.3 | 0.00 | 0.00 | 0.00 | 23 | 1021.9 |
| 20260906011832 | 23 | 200 | 8.0 | 9.7 | 0.00 | 0.00 | 0.00 | 23 | 1022.0 |
| 20260906011327 | 23 | 228 | 8.0 | 11.3 | 0.00 | 0.00 | 0.00 | 23 | 1021.8 |
| 20260906010823 | 23 | 181 | 6.4 | 6.4 | 0.00 | 0.00 | 0.00 | 24 | 1021.9 |
| 20260906010319 | 24 | 211 | 8.0 | 11.3 | 0.00 | 0.00 | 0.00 | 23 | 1021.9 |
| 20260906005814 | 24 | 224 | 6.4 | 6.4 | 0.00 | 0.00 | 0.00 | 22 | 1021.9 |
| 20260906005313 | 25 | 204 | 14.5 | 17.7 | 0.00 | 0.00 | 0.00 | 22 | 1021.8 |
| 20260906004813 | 25 | 197 | 9.7 | 14.5 | 0.00 | 0.00 | 0.00 | 22 | 1021.9 |
| 20260906004312 | 25 | 197 | 17.7 | 22.5 | 0.00 | 0.00 | 0.00 | 20 | 1021.9 |
| 20260906003808 | 25 | 226 | 24.1 | 30.6 | 0.00 | 0.00 | 0.00 | 21 | 1022.0 |
| 20260906003303 | 25 | 199 | 17.7 | 22.5 | 0.00 | 0.00 | 0.00 | 21 | 1021.9 |
| 20260906002759 | 25 | 204 | 11.3 | 14.5 | 0.00 | 0.00 | 0.00 | 21 | 1021.9 |
| 20260906002258 | 25 | 213 | 14.5 | 16.1 | 0.00 | 0.00 | 0.00 | 21 | 1021.9 |
| 20260906001754 | 26 | 187 | 8.0 | 9.7 | 0.00 | 0.00 | 0.00 | 20 | 1022.0 |
| 20260906001254 | 25 | 183 | 9.7 | 12.9 | 0.00 | 0.00 | 0.00 | 20 | 1021.9 |
| 20260906000749 | 25 | 204 | 17.7 | 22.5 | 0.00 | 0.00 | 0.00 | 19 | 1021.9 |
| 20260906000244 | 25 | 184 | 19.3 | 22.5 | 0.00 | 0.00 | 0.00 | 20 | 1021.9 |
| 20260905235739 | 26 | 179 | 11.3 | 14.5 | 0.00 | 0.00 | 0.00 | 20 | 1021.8 |
| 20260905235238 | 26 | 197 | 12.9 | 14.5 | 0.00 | 0.00 | 0.00 | 19 | 1021.7 |
| 20260905234734 | 26 | 182 | 12.9 | 14.5 | 0.00 | 0.00 | 0.00 | 19 | 1021.9 |
| 20260905234229 | 26 | 193 | 11.3 | 12.9 | 0.00 | 0.00 | 0.00 | 19 | 1021.7 |
| 20260905233724 | 26 | 224 | 19.3 | 22.5 | 0.00 | 0.00 | 0.00 | 20 | 1021.8 |
| 20260905233223 | 26 | 212 | 19.3 | 24.1 | 0.00 | 0.00 | 0.00 | 19 | 1021.8 |
| 20260905232719 | 26 | 199 | 17.7 | 20.9 | 0.00 | 0.00 | 0.00 | 19 | 1021.7 |
| 20260905232214 | 26 | 195 | 14.5 | 14.5 | 0.00 | 0.00 | 0.00 | 19 | 1021.8 |
| 20260905231710 | 26 | 197 | 17.7 | 20.9 | 0.00 | 0.00 | 0.00 | 19 | 1021.9 |
| 20260905231205 | 26 | 215 | 17.7 | 20.9 | 0.00 | 0.00 | 0.00 | 19 | 1021.9 |